createdAt,value
2018-08-28T00:01:19.901Z,4.72
2018-08-28T00:03:48.481Z,2.55
2018-08-28T00:06:17.086Z,4.45
2018-08-28T00:08:45.627Z,6.58
2018-08-28T00:11:14.237Z,3.25
2018-08-28T00:13:42.768Z,4.70
2018-08-28T00:16:11.397Z,3.37
2018-08-28T00:18:39.957Z,3.25
2018-08-28T00:21:08.518Z,3.33
2018-08-28T00:23:37.057Z,3.15
2018-08-28T00:26:05.592Z,5.20
2018-08-28T00:28:34.268Z,5.25
2018-08-28T00:31:02.848Z,3.20
2018-08-28T00:33:31.373Z,6.28
2018-08-28T00:35:59.901Z,2.90
2018-08-28T00:38:28.425Z,5.12
2018-08-28T00:40:56.962Z,3.87
2018-08-28T00:43:25.509Z,7.40
2018-08-28T00:45:54.061Z,3.87
2018-08-28T00:48:22.655Z,4.72
2018-08-28T00:50:51.233Z,3.85
2018-08-28T00:53:19.797Z,7.15
2018-08-28T00:55:48.340Z,3.05
2018-08-28T00:58:16.893Z,3.92
2018-08-28T01:00:45.418Z,6.30
2018-08-28T01:03:13.964Z,6.70
2018-08-28T01:05:42.500Z,4.22
2018-08-28T01:08:11.050Z,2.62
2018-08-28T01:10:39.625Z,13.08
2018-08-28T01:13:08.225Z,3.77
2018-08-28T01:15:36.770Z,3.47
2018-08-28T01:18:05.621Z,4.55
2018-08-28T01:20:34.291Z,3.87
2018-08-28T01:23:03.018Z,4.40
2018-08-28T01:25:31.588Z,3.85
2018-08-28T01:28:00.167Z,3.20
2018-08-28T01:30:32.836Z,3.87
2018-08-28T01:33:02.322Z,3.80
2018-08-28T01:35:30.902Z,3.12
2018-08-28T01:37:59.608Z,4.80
2018-08-28T01:40:28.613Z,5.25
2018-08-28T01:42:58.006Z,4.25
2018-08-28T01:45:26.632Z,4.10
2018-08-28T01:47:55.157Z,3.62
2018-08-28T01:50:23.778Z,5.12
2018-08-28T01:52:52.328Z,2.87
2018-08-28T01:55:20.924Z,2.92
2018-08-28T01:57:49.448Z,3.80
2018-08-28T02:00:17.965Z,6.90
2018-08-28T02:02:46.504Z,4.67
2018-08-28T02:05:15.111Z,4.70
2018-08-28T02:07:43.671Z,3.00
2018-08-28T02:10:12.201Z,8.18
2018-08-28T02:12:40.787Z,3.05
2018-08-28T02:15:09.316Z,7.58
2018-08-28T02:17:38.067Z,3.12
2018-08-28T02:20:06.678Z,3.15
2018-08-28T02:22:35.270Z,5.37
2018-08-28T02:25:04.119Z,3.20
2018-08-28T02:27:32.668Z,3.92
2018-08-28T02:30:01.224Z,5.10
2018-08-28T02:32:29.751Z,2.83
2018-08-28T02:34:58.286Z,4.40
2018-08-28T02:37:27.360Z,5.40
2018-08-28T02:39:56.057Z,4.78
2018-08-28T02:42:24.582Z,3.67
2018-08-28T02:44:53.343Z,4.90
2018-08-28T02:47:21.921Z,3.30
2018-08-28T02:49:50.469Z,4.00
2018-08-28T02:52:19.061Z,4.53
2018-08-28T02:54:47.620Z,3.25
2018-08-28T02:57:16.169Z,6.40
2018-08-28T02:59:44.719Z,5.00
2018-08-28T03:02:13.295Z,5.17
2018-08-28T03:04:41.838Z,3.65
2018-08-28T03:07:10.481Z,3.95
2018-08-28T03:09:39.054Z,9.15
2018-08-28T03:12:07.631Z,4.60
2018-08-28T03:14:36.160Z,3.22
2018-08-28T03:17:04.760Z,4.03
2018-08-28T03:19:33.333Z,3.37
2018-08-28T03:22:01.928Z,4.60
2018-08-28T03:24:30.527Z,3.10
2018-08-28T03:26:59.078Z,4.00
2018-08-28T03:29:27.628Z,4.37
2018-08-28T03:31:56.203Z,5.00
2018-08-28T03:34:24.755Z,3.40
2018-08-28T03:36:53.402Z,3.83
2018-08-28T03:39:22.003Z,3.75
2018-08-28T03:41:50.538Z,3.60
2018-08-28T03:44:19.087Z,4.80
2018-08-28T03:46:47.640Z,7.20
2018-08-28T03:49:16.252Z,3.50
2018-08-28T03:51:44.816Z,5.33
2018-08-28T03:54:13.379Z,5.05
2018-08-28T03:56:41.948Z,3.87
2018-08-28T03:59:10.572Z,4.12
2018-08-28T04:01:39.122Z,4.10
2018-08-28T04:04:07.669Z,3.42
2018-08-28T04:06:36.757Z,4.10
2018-08-28T04:09:06.682Z,3.45
2018-08-28T04:11:35.241Z,3.25
2018-08-28T04:14:03.799Z,6.00
2018-08-28T04:16:32.419Z,9.15
2018-08-28T04:19:00.966Z,4.90
2018-08-28T04:21:29.535Z,3.72
2018-08-28T04:23:58.111Z,3.50
2018-08-28T04:26:26.653Z,5.85
2018-08-28T04:28:55.248Z,5.15
2018-08-28T04:31:23.799Z,6.37
2018-08-28T04:33:52.355Z,9.35
2018-08-28T04:36:20.903Z,8.78
2018-08-28T04:38:49.467Z,7.53
2018-08-28T04:41:18.014Z,5.70
2018-08-28T04:43:46.546Z,6.95
2018-08-28T04:46:15.094Z,4.70
2018-08-28T04:48:43.687Z,8.05
2018-08-28T04:51:12.202Z,3.72
2018-08-28T04:53:40.761Z,4.20
2018-08-28T04:56:09.307Z,3.52
2018-08-28T04:58:37.857Z,3.72
2018-08-28T05:01:06.407Z,3.98
2018-08-28T05:03:34.960Z,3.55
2018-08-28T05:06:03.538Z,5.15
2018-08-28T05:08:32.083Z,5.45
2018-08-28T05:11:00.648Z,5.03
2018-08-28T05:13:29.207Z,6.15
2018-08-28T05:15:57.832Z,7.05
2018-08-28T05:18:26.332Z,4.55
2018-08-28T05:20:54.879Z,7.40
2018-08-28T05:23:23.441Z,4.67
2018-08-28T05:25:51.989Z,8.18
2018-08-28T05:28:20.564Z,5.62
2018-08-28T05:30:49.180Z,6.22
2018-08-28T05:33:17.723Z,9.08
2018-08-28T05:35:46.271Z,6.78
2018-08-28T05:38:14.828Z,5.28
2018-08-28T05:40:43.407Z,8.08
2018-08-28T05:43:11.961Z,8.13
2018-08-28T05:45:40.562Z,6.83
2018-08-28T05:48:09.329Z,6.60
2018-08-28T05:50:37.893Z,9.28
2018-08-28T05:53:06.461Z,7.10
2018-08-28T05:55:35.027Z,11.80
2018-08-28T05:58:03.591Z,7.37
2018-08-28T06:00:32.180Z,8.40
2018-08-28T06:03:00.837Z,7.80
2018-08-28T06:05:29.332Z,8.95
2018-08-28T06:07:57.877Z,9.73
2018-08-28T06:10:26.429Z,18.55
2018-08-28T06:12:54.986Z,10.08
2018-08-28T06:15:23.537Z,11.60
2018-08-28T06:17:52.076Z,13.62
2018-08-28T06:20:20.636Z,13.50
2018-08-28T06:22:49.208Z,11.20
2018-08-28T06:25:17.754Z,15.15
2018-08-28T06:27:46.302Z,14.38
2018-08-28T06:30:14.862Z,8.80
2018-08-28T06:32:43.451Z,16.20
2018-08-28T06:35:12.009Z,11.68
2018-08-28T06:37:40.566Z,7.25
2018-08-28T06:40:09.140Z,13.60
2018-08-28T06:42:37.773Z,9.70
2018-08-28T06:45:06.345Z,10.60
2018-08-28T06:47:34.905Z,11.97
2018-08-28T06:50:03.481Z,13.30
2018-08-28T06:52:31.993Z,13.55
2018-08-28T06:55:00.535Z,8.43
2018-08-28T06:57:29.087Z,7.97
2018-08-28T06:59:58.053Z,16.40
2018-08-28T07:02:26.733Z,16.02
2018-08-28T07:04:55.186Z,14.05
2018-08-28T07:07:23.792Z,13.93
2018-08-28T07:09:52.351Z,8.85
2018-08-28T07:12:20.886Z,13.18
2018-08-28T07:14:49.439Z,11.25
2018-08-28T07:17:18.038Z,15.72
2018-08-28T07:19:46.603Z,10.90
2018-08-28T07:22:15.212Z,12.80
2018-08-28T07:24:43.757Z,11.22
2018-08-28T07:27:12.305Z,11.35
2018-08-28T07:29:40.933Z,10.45
2018-08-28T07:32:09.464Z,8.85
2018-08-28T07:34:38.043Z,13.08
2018-08-28T07:37:06.619Z,18.23
2018-08-28T07:39:35.267Z,14.50
2018-08-28T07:42:03.872Z,9.28
2018-08-28T07:44:32.415Z,11.85
2018-08-28T07:47:01.014Z,13.30
2018-08-28T07:49:29.607Z,14.35
2018-08-28T07:51:58.278Z,9.13
2018-08-28T07:54:26.813Z,7.42
2018-08-28T07:56:55.389Z,11.70
2018-08-28T07:59:23.950Z,11.93
2018-08-28T08:01:52.518Z,12.82
2018-08-28T08:04:21.051Z,11.05
2018-08-28T08:06:49.605Z,10.90
2018-08-28T08:09:18.177Z,21.57
2018-08-28T08:11:46.716Z,10.53
2018-08-28T08:14:15.312Z,11.35
2018-08-28T08:16:43.930Z,11.63
2018-08-28T08:19:12.471Z,10.40
2018-08-28T08:21:41.014Z,16.27
2018-08-28T08:24:09.557Z,10.93
2018-08-28T08:26:38.173Z,20.05
2018-08-28T08:29:06.957Z,10.70
2018-08-28T08:31:35.505Z,14.23
2018-08-28T08:34:04.096Z,18.67
2018-08-28T08:36:32.681Z,12.10
2018-08-28T08:39:01.230Z,14.53
2018-08-28T08:41:29.785Z,11.83
2018-08-28T08:43:58.384Z,13.18
2018-08-28T08:46:26.928Z,16.20
2018-08-28T08:48:55.482Z,13.30
2018-08-28T08:51:24.066Z,10.00
2018-08-28T08:53:52.632Z,19.03
2018-08-28T08:56:21.320Z,12.23
2018-08-28T08:58:49.918Z,12.00
2018-08-28T09:01:18.466Z,21.10
2018-08-28T09:03:47.070Z,14.37
2018-08-28T09:06:15.635Z,12.00
2018-08-28T09:08:44.239Z,9.57
2018-08-28T09:11:12.873Z,9.83
2018-08-28T09:13:41.434Z,18.23
2018-08-28T09:16:09.961Z,11.93
2018-08-28T09:18:38.509Z,11.33
2018-08-28T09:21:07.106Z,11.20
2018-08-28T09:23:35.628Z,13.10
2018-08-28T09:26:04.286Z,13.97
2018-08-28T09:28:32.825Z,14.20
2018-08-28T09:31:01.375Z,14.67
2018-08-28T09:33:29.901Z,14.43
2018-08-28T09:35:58.471Z,11.37
2018-08-28T09:38:27.089Z,11.77
2018-08-28T09:40:55.667Z,15.77
2018-08-28T09:43:24.189Z,11.90
2018-08-28T09:45:52.790Z,14.43
2018-08-28T09:48:21.365Z,16.43
2018-08-28T09:50:49.910Z,17.23
2018-08-28T09:53:18.485Z,16.03
2018-08-28T09:55:47.036Z,12.53
2018-08-28T09:58:15.615Z,11.80
2018-08-28T10:00:49.418Z,12.83
2018-08-28T10:03:18.007Z,17.93
2018-08-28T10:05:46.634Z,10.83
2018-08-28T10:08:15.195Z,13.93
2018-08-28T10:10:44.153Z,11.37
2018-08-28T10:13:12.671Z,13.90
2018-08-28T10:15:41.269Z,12.40
2018-08-28T10:18:09.828Z,11.40
2018-08-28T10:20:38.365Z,9.27
2018-08-28T10:23:06.956Z,16.13
2018-08-28T10:25:35.540Z,9.23
2018-08-28T10:28:04.171Z,12.23
2018-08-28T10:30:32.777Z,9.67
2018-08-28T10:33:01.254Z,9.93
2018-08-28T10:35:29.838Z,12.70
2018-08-28T10:37:58.432Z,12.20
2018-08-28T10:40:26.938Z,7.50
2018-08-28T10:42:55.497Z,8.00
2018-08-28T10:45:24.059Z,7.00
2018-08-28T10:47:52.599Z,7.27
2018-08-28T10:50:21.141Z,8.30
2018-08-28T10:52:49.760Z,12.10
2018-08-28T10:55:18.263Z,8.20
2018-08-28T10:57:46.807Z,7.40
2018-08-28T11:00:15.351Z,7.67
2018-08-28T11:02:43.886Z,6.60
2018-08-28T11:05:12.441Z,11.07
2018-08-28T11:07:40.960Z,8.80
2018-08-28T11:10:09.978Z,7.93
2018-08-28T11:12:38.779Z,8.93
2018-08-28T11:15:07.354Z,9.60
2018-08-28T11:17:36.004Z,7.37
2018-08-28T11:20:04.656Z,9.83
2018-08-28T11:22:33.205Z,14.03
2018-08-28T11:25:01.707Z,10.70
2018-08-28T11:27:30.284Z,8.77
2018-08-28T11:29:58.830Z,15.83
2018-08-28T11:32:27.357Z,10.10
2018-08-28T11:34:55.933Z,7.50
2018-08-28T11:37:24.454Z,13.67
2018-08-28T11:39:53.056Z,11.37
2018-08-28T11:42:21.579Z,12.30
2018-08-28T11:44:50.089Z,9.17
2018-08-28T11:47:18.647Z,13.80
2018-08-28T11:49:47.202Z,10.47
2018-08-28T11:52:15.743Z,8.60
2018-08-28T11:54:44.299Z,22.80
2018-08-28T11:57:12.834Z,8.50
2018-08-28T11:59:41.443Z,12.53
2018-08-28T12:02:10.027Z,9.17
2018-08-28T12:04:38.579Z,9.67
2018-08-28T12:07:07.671Z,9.70
2018-08-28T12:09:36.209Z,11.00
2018-08-28T12:12:04.888Z,10.67
2018-08-28T12:14:33.422Z,10.83
2018-08-28T12:17:01.939Z,9.67
2018-08-28T12:19:30.511Z,16.33
2018-08-28T12:21:59.059Z,8.67
2018-08-28T12:24:27.656Z,9.73
2018-08-28T12:26:56.190Z,13.97
2018-08-28T12:29:24.733Z,12.30
2018-08-28T12:31:53.321Z,11.93
2018-08-28T12:34:21.899Z,13.37
2018-08-28T12:36:50.566Z,11.53
2018-08-28T12:39:19.064Z,11.20
2018-08-28T12:41:47.590Z,9.30
2018-08-28T12:44:16.246Z,11.83
2018-08-28T12:46:44.801Z,13.00
2018-08-28T12:49:13.468Z,14.23
2018-08-28T12:51:42.065Z,8.83
2018-08-28T12:54:10.633Z,8.50
2018-08-28T12:56:39.194Z,11.53
2018-08-28T12:59:07.777Z,9.53
2018-08-28T13:01:36.313Z,11.60
2018-08-28T13:04:04.912Z,10.00
2018-08-28T13:06:33.522Z,10.03
2018-08-28T13:09:02.052Z,10.73
2018-08-28T13:11:30.638Z,14.80
2018-08-28T13:13:59.190Z,15.30
2018-08-28T13:16:27.802Z,10.50
2018-08-28T13:18:56.475Z,9.80
2018-08-28T13:21:25.069Z,12.13
2018-08-28T13:23:53.931Z,8.60
2018-08-28T13:26:22.470Z,14.37
2018-08-28T13:28:51.055Z,11.93
2018-08-28T13:31:19.619Z,11.10
2018-08-28T13:33:48.176Z,11.10
2018-08-28T13:36:16.718Z,13.37
2018-08-28T13:38:45.305Z,11.40
2018-08-28T13:41:13.852Z,10.10
2018-08-28T13:43:42.457Z,14.33
2018-08-28T13:46:11.006Z,11.40
2018-08-28T13:48:39.603Z,10.43
2018-08-28T13:51:08.155Z,15.97
2018-08-28T13:53:36.717Z,15.70
2018-08-28T13:56:05.247Z,11.83
2018-08-28T13:58:33.823Z,12.33
2018-08-28T14:01:02.348Z,13.53
2018-08-28T14:03:30.951Z,13.30
2018-08-28T14:05:59.493Z,13.17
2018-08-28T14:08:28.033Z,14.43
2018-08-28T14:10:56.565Z,8.80
2018-08-28T14:13:25.125Z,10.70
2018-08-28T14:15:53.682Z,14.33
2018-08-28T14:18:22.347Z,11.60
2018-08-28T14:20:50.872Z,11.93
2018-08-28T14:23:19.461Z,10.40
2018-08-28T14:25:48.130Z,14.23
2018-08-28T14:28:16.718Z,12.60
2018-08-28T14:30:45.270Z,16.03
2018-08-28T14:33:14.014Z,13.40
2018-08-28T14:35:42.627Z,14.00
2018-08-28T14:38:11.169Z,11.33
2018-08-28T14:40:41.805Z,20.13
2018-08-28T14:43:12.995Z,11.67
2018-08-28T14:45:41.655Z,12.83
2018-08-28T14:48:10.198Z,10.23
2018-08-28T14:50:38.741Z,11.43
2018-08-28T14:53:07.320Z,12.10
2018-08-28T14:55:35.885Z,11.43
2018-08-28T14:58:04.575Z,8.70
2018-08-28T15:00:33.123Z,11.70
2018-08-28T15:03:02.546Z,9.80
2018-08-28T15:05:31.097Z,10.17
2018-08-28T15:07:59.670Z,13.83
2018-08-28T15:10:28.318Z,10.40
2018-08-28T15:12:56.910Z,10.50
2018-08-28T15:15:25.464Z,8.10
2018-08-28T15:17:54.082Z,9.47
2018-08-28T15:20:22.678Z,13.87
2018-08-28T15:22:51.375Z,12.97
2018-08-28T15:25:19.959Z,11.40
2018-08-28T15:27:48.560Z,9.63
2018-08-28T15:30:17.100Z,18.83
2018-08-28T15:32:45.749Z,14.77
2018-08-28T15:35:14.230Z,14.23
2018-08-28T15:37:42.813Z,10.30
2018-08-28T15:40:11.506Z,10.07
2018-08-28T15:42:40.077Z,11.00
2018-08-28T15:45:08.669Z,11.37
2018-08-28T15:47:37.278Z,10.73
2018-08-28T15:50:05.999Z,9.03
2018-08-28T15:52:34.608Z,12.20
2018-08-28T15:55:03.258Z,12.70
2018-08-28T15:57:31.805Z,8.93
2018-08-28T16:00:00.348Z,12.00
2018-08-28T16:02:29.005Z,13.53
2018-08-28T16:04:57.605Z,11.47
2018-08-28T16:07:26.137Z,11.80
2018-08-28T16:09:54.673Z,11.70
2018-08-28T16:12:23.202Z,12.00
2018-08-28T16:14:51.815Z,8.37
2018-08-28T16:17:20.346Z,11.57
2018-08-28T16:19:48.921Z,9.37
2018-08-28T16:22:21.935Z,10.23
2018-08-28T16:24:50.527Z,10.13
2018-08-28T16:27:19.153Z,10.40
2018-08-28T16:29:47.745Z,12.00
2018-08-28T16:32:16.257Z,15.70
2018-08-28T16:34:44.808Z,10.10
2018-08-28T16:37:13.481Z,8.07
2018-08-28T16:39:42.013Z,11.70
2018-08-28T16:42:10.545Z,9.80
2018-08-28T16:44:39.168Z,10.93
2018-08-28T16:47:07.731Z,10.60
2018-08-28T16:49:36.299Z,13.10
2018-08-28T16:52:06.040Z,11.53
2018-08-28T16:54:34.728Z,9.23
2018-08-28T16:57:03.374Z,8.90
2018-08-28T16:59:32.761Z,11.17
2018-08-28T17:02:01.316Z,8.53
2018-08-28T17:04:29.847Z,11.23
2018-08-28T17:06:58.426Z,10.60
2018-08-28T17:09:27.242Z,10.10
2018-08-28T17:11:55.891Z,9.40
2018-08-28T17:14:24.511Z,10.00
2018-08-28T17:16:53.458Z,12.63
2018-08-28T17:19:22.170Z,14.17
2018-08-28T17:21:50.761Z,12.20
2018-08-28T17:24:19.486Z,13.93
2018-08-28T17:26:48.048Z,10.63
2018-08-28T17:29:16.599Z,11.23
2018-08-28T17:31:45.204Z,10.93
2018-08-28T17:34:13.925Z,12.00
2018-08-28T17:36:42.471Z,13.13
2018-08-28T17:39:11.038Z,9.80
2018-08-28T17:41:39.561Z,11.87
2018-08-28T17:44:08.153Z,10.03
2018-08-28T17:46:36.727Z,11.10
2018-08-28T17:49:05.808Z,10.43
2018-08-28T17:51:34.348Z,9.63
2018-08-28T17:54:02.901Z,11.60
2018-08-28T17:56:31.565Z,11.90
2018-08-28T17:59:00.123Z,10.30
2018-08-28T18:01:28.746Z,14.13
2018-08-28T18:03:57.359Z,11.60
2018-08-28T18:06:25.853Z,10.90
2018-08-28T18:08:54.445Z,10.10
2018-08-28T18:11:23.088Z,12.47
2018-08-28T18:13:51.628Z,11.87
2018-08-28T18:16:20.232Z,11.90
2018-08-28T18:18:48.765Z,10.50
2018-08-28T18:21:17.323Z,12.20
2018-08-28T18:23:45.875Z,10.27
2018-08-28T18:26:14.477Z,16.33
2018-08-28T18:28:43.139Z,11.97
2018-08-28T18:31:11.695Z,8.30
2018-08-28T18:33:40.275Z,15.70
2018-08-28T18:36:08.837Z,12.57
2018-08-28T18:38:37.483Z,12.37
2018-08-28T18:41:06.204Z,12.20
2018-08-28T18:43:35.443Z,11.53
2018-08-28T18:46:04.283Z,11.07
2018-08-28T18:48:32.884Z,12.00
2018-08-28T18:51:01.581Z,13.10
2018-08-28T18:53:30.649Z,13.30
2018-08-28T18:55:59.283Z,12.00
2018-08-28T18:58:27.881Z,14.77
2018-08-28T19:00:56.488Z,11.23
2018-08-28T19:03:25.094Z,14.77
2018-08-28T19:05:53.651Z,14.93
2018-08-28T19:08:22.327Z,20.50
2018-08-28T19:10:51.884Z,17.50
2018-08-28T19:13:20.522Z,16.93
2018-08-28T19:15:49.149Z,14.87
2018-08-28T19:18:17.757Z,14.57
2018-08-28T19:20:46.342Z,10.00
2018-08-28T19:23:14.913Z,14.13
2018-08-28T19:25:43.503Z,13.17
2018-08-28T19:28:12.222Z,14.27
2018-08-28T19:30:40.785Z,13.70
2018-08-28T19:33:09.424Z,15.10
2018-08-28T19:35:38.032Z,16.30
2018-08-28T19:38:07.057Z,14.63
2018-08-28T19:40:35.634Z,15.93
2018-08-28T19:43:04.302Z,19.97
2018-08-28T19:45:32.932Z,19.83
2018-08-28T19:48:01.550Z,12.85
2018-08-28T19:50:30.175Z,15.78
2018-08-28T19:52:58.695Z,13.45
2018-08-28T19:55:27.348Z,11.75
2018-08-28T19:57:56.000Z,13.35
2018-08-28T20:00:24.602Z,12.03
2018-08-28T20:02:53.301Z,13.35
2018-08-28T20:05:21.852Z,17.80
2018-08-28T20:07:50.645Z,16.73
2018-08-28T20:10:19.195Z,13.00
2018-08-28T20:12:47.731Z,11.80
2018-08-28T20:15:16.273Z,12.53
2018-08-28T20:17:44.877Z,13.22
2018-08-28T20:20:13.452Z,14.65
2018-08-28T20:22:42.035Z,13.65
2018-08-28T20:25:10.701Z,16.80
2018-08-28T20:27:39.234Z,14.10
2018-08-28T20:30:08.077Z,19.23
2018-08-28T20:32:36.634Z,13.32
2018-08-28T20:35:05.347Z,11.85
2018-08-28T20:37:33.887Z,15.50
2018-08-28T20:40:02.455Z,14.18
2018-08-28T20:42:31.057Z,15.48
2018-08-28T20:44:59.608Z,15.90
2018-08-28T20:47:28.175Z,16.87
2018-08-28T20:49:56.715Z,12.82
2018-08-28T20:52:25.259Z,13.03
2018-08-28T20:54:53.764Z,17.02
2018-08-28T20:57:22.343Z,16.40
2018-08-28T20:59:51.099Z,15.60
2018-08-28T21:02:19.636Z,15.20
2018-08-28T21:04:48.207Z,12.63
2018-08-28T21:07:16.755Z,15.10
2018-08-28T21:09:45.333Z,14.80
2018-08-28T21:12:13.879Z,17.40
2018-08-28T21:14:42.433Z,13.62
2018-08-28T21:17:10.980Z,18.55
2018-08-28T21:19:39.520Z,14.65
2018-08-28T21:22:08.049Z,13.15
2018-08-28T21:24:36.603Z,19.12
2018-08-28T21:27:05.201Z,15.13
2018-08-28T21:29:33.827Z,12.88
2018-08-28T21:32:02.453Z,13.50
2018-08-28T21:34:31.049Z,12.03
2018-08-28T21:36:59.584Z,17.65
2018-08-28T21:39:28.146Z,16.60
2018-08-28T21:41:56.667Z,13.10
2018-08-28T21:44:25.222Z,16.12
2018-08-28T21:46:53.776Z,10.30
2018-08-28T21:49:22.309Z,14.13
2018-08-28T21:51:50.860Z,14.65
2018-08-28T21:54:19.491Z,14.73
2018-08-28T21:56:48.022Z,17.48
2018-08-28T21:59:16.580Z,13.72
2018-08-28T22:01:45.154Z,16.35
2018-08-28T22:04:13.721Z,11.25
2018-08-28T22:06:47.548Z,14.20
2018-08-28T22:09:16.173Z,11.48
2018-08-28T22:11:44.747Z,12.73
2018-08-28T22:14:13.322Z,15.95
2018-08-28T22:16:41.893Z,12.20
2018-08-28T22:19:10.479Z,14.28
2018-08-28T22:21:39.033Z,15.53
2018-08-28T22:24:07.599Z,13.10
2018-08-28T22:26:36.186Z,13.10
2018-08-28T22:29:04.766Z,11.65
2018-08-28T22:31:33.317Z,15.03
2018-08-28T22:34:01.857Z,14.47
2018-08-28T22:36:30.382Z,14.15
2018-08-28T22:38:58.945Z,13.03
2018-08-28T22:41:27.533Z,12.90
2018-08-28T22:43:56.101Z,11.08
2018-08-28T22:46:24.660Z,15.28
2018-08-28T22:48:53.205Z,13.38
2018-08-28T22:51:21.766Z,12.93
2018-08-28T22:53:50.301Z,12.00
2018-08-28T22:56:18.852Z,13.53
2018-08-28T22:58:47.518Z,14.00
2018-08-28T23:01:16.075Z,18.07
2018-08-28T23:03:44.668Z,13.83
2018-08-28T23:06:13.201Z,13.05
2018-08-28T23:08:41.765Z,12.03
2018-08-28T23:11:10.317Z,13.13
2018-08-28T23:13:38.875Z,15.28
2018-08-28T23:16:07.429Z,14.83
2018-08-28T23:18:36.060Z,14.23
2018-08-28T23:21:04.672Z,12.73
2018-08-28T23:23:33.217Z,12.88
2018-08-28T23:26:01.777Z,14.40
2018-08-28T23:28:30.339Z,16.07
2018-08-28T23:30:58.932Z,14.50
2018-08-28T23:33:27.555Z,13.25
2018-08-28T23:35:56.106Z,14.33
2018-08-28T23:38:24.695Z,13.40
2018-08-28T23:40:53.242Z,12.80
2018-08-28T23:43:21.962Z,14.33
2018-08-28T23:45:50.521Z,14.58
2018-08-28T23:48:19.068Z,12.88
2018-08-28T23:50:47.593Z,15.00
2018-08-28T23:53:16.173Z,14.65
2018-08-28T23:55:44.706Z,17.77
2018-08-28T23:58:13.253Z,14.05
